Terminal Aerodrome Forecast
Issued by NWS

Home | Current Version | Previous Version | Text Only | Print | Product List | Glossary On
Versions: 1 2 3 4 5 6 7 8 9 10 11 12 13 14 15 16 17
000
FTUS43 KBIS 191800 AAB
TAFMOT
TAF AMD
KMOT 191815Z 1918/2018 27015G25KT P6SM SCT120
     FM200100 30008KT P6SM VCSH BKN090
     FM201300 26011KT P6SM SCT100
     FM201600 30017G25KT 6SM -SHRA BKN090=

USA.gov is the U.S. government's official web portal to all federal, state and local government web resources and services.